createdAt,value
2023-03-05T00:01:24.138Z,79.45
2023-03-05T00:03:54.873Z,79.88
2023-03-05T00:06:24.284Z,79.69
2023-03-05T00:08:53.284Z,79.73
2023-03-05T00:11:20.985Z,79.42
2023-03-05T00:13:47.962Z,79.65
2023-03-05T00:16:16.326Z,80.04
2023-03-05T00:18:43.681Z,79.37
2023-03-05T00:21:26.290Z,80.15
2023-03-05T00:23:53.697Z,80.22
2023-03-05T00:26:23.125Z,80.60
2023-03-05T00:28:51.731Z,80.07
2023-03-05T00:31:20.646Z,80.66
2023-03-05T00:33:52.419Z,80.87
2023-03-05T00:36:19.648Z,80.35
2023-03-05T00:38:46.465Z,80.67
2023-03-05T00:41:13.145Z,80.91
2023-03-05T00:43:39.856Z,80.69
2023-03-05T00:46:06.558Z,80.53
2023-03-05T00:48:33.209Z,80.58
2023-03-05T00:51:00.133Z,81.06
2023-03-05T00:53:26.850Z,80.59
2023-03-05T00:55:53.509Z,80.95
2023-03-05T00:58:20.150Z,80.98
2023-03-05T01:00:46.783Z,82.17
2023-03-05T01:03:13.618Z,82.13
2023-03-05T01:05:40.308Z,83.19
2023-03-05T01:08:07.055Z,81.95
2023-03-05T01:10:34.063Z,82.94
2023-03-05T01:13:00.763Z,82.64
2023-03-05T01:15:27.615Z,82.98
2023-03-05T01:17:54.294Z,82.92
2023-03-05T01:20:22.845Z,82.70
2023-03-05T01:22:49.820Z,82.98
2023-03-05T01:25:17.543Z,82.76
2023-03-05T01:27:44.920Z,83.12
2023-03-05T01:30:13.945Z,82.93
2023-03-05T01:32:40.624Z,83.28
2023-03-05T01:35:08.456Z,83.11
2023-03-05T01:37:35.059Z,83.59
2023-03-05T01:40:01.797Z,83.74
2023-03-05T01:42:28.479Z,83.00
2023-03-05T01:45:10.535Z,83.52
2023-03-05T01:47:37.561Z,83.71
2023-03-05T01:50:07.038Z,83.98
2023-03-05T01:52:36.642Z,83.65
2023-03-05T01:55:09.835Z,83.80
2023-03-05T01:57:42.132Z,84.28
2023-03-05T02:00:16.678Z,84.56
2023-03-05T02:02:49.847Z,84.07
2023-03-05T02:05:27.125Z,84.20
2023-03-05T02:07:59.598Z,84.44
2023-03-05T02:10:29.626Z,84.10
2023-03-05T02:12:58.937Z,84.00
2023-03-05T02:15:25.605Z,84.29
2023-03-05T02:17:52.304Z,84.53
2023-03-05T02:20:24.784Z,85.30
2023-03-05T02:22:51.889Z,85.23
2023-03-05T02:25:27.402Z,85.91
2023-03-05T02:28:03.055Z,85.40
2023-03-05T02:30:31.196Z,84.80
2023-03-05T02:32:58.393Z,85.34
2023-03-05T02:35:25.091Z,86.00
2023-03-05T02:37:51.761Z,85.49
2023-03-05T02:40:18.583Z,85.55
2023-03-05T02:42:45.531Z,86.20
2023-03-05T02:45:12.601Z,86.93
2023-03-05T02:47:39.561Z,85.83
2023-03-05T02:50:07.546Z,86.07
2023-03-05T02:56:21.947Z,86.57
2023-03-05T02:58:48.701Z,86.46
2023-03-05T03:01:15.458Z,87.12
2023-03-05T03:03:42.168Z,86.80
2023-03-05T03:06:08.808Z,89.02
2023-03-05T03:08:35.458Z,88.81
2023-03-05T03:11:07.483Z,88.00
2023-03-05T03:13:34.248Z,86.94
2023-03-05T03:16:18.931Z,87.93
2023-03-05T03:18:47.418Z,88.00
2023-03-05T03:21:22.950Z,87.51
2023-03-05T03:23:49.661Z,87.21
2023-03-05T03:26:17.229Z,87.73
2023-03-05T03:28:43.943Z,87.31
2023-03-05T03:31:11.041Z,87.45
2023-03-05T03:33:37.707Z,87.93
2023-03-05T03:36:05.321Z,86.76
2023-03-05T03:38:31.973Z,87.62
2023-03-05T03:40:58.608Z,87.08
2023-03-05T03:43:25.414Z,88.95
2023-03-05T03:45:52.050Z,88.33
2023-03-05T03:48:18.716Z,88.51
2023-03-05T03:50:45.371Z,88.39
2023-03-05T03:53:14.628Z,88.55
2023-03-05T03:55:42.783Z,87.46
2023-03-05T03:58:09.825Z,88.43
2023-03-05T04:00:36.698Z,88.85
2023-03-05T04:03:03.733Z,88.84
2023-03-05T04:05:30.552Z,89.34
2023-03-05T04:07:58.438Z,88.73
2023-03-05T04:10:25.711Z,88.85
2023-03-05T04:12:52.509Z,88.35
2023-03-05T04:15:19.298Z,87.81
2023-03-05T04:17:45.948Z,88.20
2023-03-05T04:20:13.093Z,88.18
2023-03-05T04:22:39.776Z,89.40
2023-03-05T04:25:08.244Z,88.77
2023-03-05T04:27:36.648Z,88.81
2023-03-05T04:30:05.360Z,88.59
2023-03-05T04:32:32.056Z,88.23
2023-03-05T04:34:58.894Z,89.79
2023-03-05T04:37:26.223Z,88.37
2023-03-05T04:39:53.216Z,88.38
2023-03-05T04:42:21.330Z,88.53
2023-03-05T04:44:49.332Z,88.83
2023-03-05T04:47:17.173Z,88.40
2023-03-05T04:49:44.139Z,88.38
2023-03-05T04:52:14.757Z,88.39
2023-03-05T04:54:41.944Z,88.44
2023-03-05T04:57:08.663Z,88.76
2023-03-05T04:59:37.352Z,88.94
2023-03-05T05:02:05.386Z,88.45
2023-03-05T05:04:33.768Z,88.08
2023-03-05T05:07:00.578Z,88.39
2023-03-05T05:09:27.260Z,89.13
2023-03-05T05:11:54.257Z,88.04
2023-03-05T05:14:20.981Z,88.60
2023-03-05T05:16:47.673Z,88.47
2023-03-05T05:19:14.313Z,88.75
2023-03-05T05:21:41.027Z,89.14
2023-03-05T05:24:07.846Z,89.15
2023-03-05T05:26:34.507Z,88.79
2023-03-05T05:29:01.200Z,88.95
2023-03-05T05:31:27.885Z,90.16
2023-03-05T05:33:54.537Z,89.54
2023-03-05T05:36:22.300Z,89.25
2023-03-05T05:38:49.412Z,89.54
2023-03-05T05:41:18.321Z,89.58
2023-03-05T05:43:45.291Z,89.11
2023-03-05T05:46:15.464Z,89.03
2023-03-05T05:48:42.261Z,88.99
2023-03-05T05:51:14.848Z,89.60
2023-03-05T05:53:42.954Z,89.49
2023-03-05T05:56:11.806Z,88.79
2023-03-05T05:58:40.249Z,89.31
2023-03-05T06:01:18.907Z,89.21
2023-03-05T06:03:46.238Z,88.70
2023-03-05T06:06:15.763Z,89.25
2023-03-05T06:08:42.452Z,88.55
2023-03-05T06:11:09.454Z,88.58
2023-03-05T06:13:36.506Z,88.09
2023-03-05T06:16:06.528Z,89.30
2023-03-05T06:18:34.182Z,89.74
2023-03-05T06:21:04.646Z,88.89
2023-03-05T06:23:31.296Z,89.18
2023-03-05T06:26:03.244Z,89.14
2023-03-05T06:28:30.609Z,89.87
2023-03-05T06:31:02.659Z,89.44
2023-03-05T06:33:29.309Z,89.44
2023-03-05T06:35:56.049Z,89.93
2023-03-05T06:38:22.902Z,89.94
2023-03-05T06:40:49.627Z,89.73
2023-03-05T06:43:16.250Z,90.05
2023-03-05T06:45:42.905Z,89.89
2023-03-05T06:48:09.573Z,89.49
2023-03-05T06:50:37.055Z,89.57
2023-03-05T06:53:03.885Z,90.42
2023-03-05T06:55:30.545Z,90.38
2023-03-05T06:57:57.155Z,90.47
2023-03-05T07:00:24.392Z,89.92
2023-03-05T07:02:51.108Z,89.31
2023-03-05T07:05:17.900Z,89.57
2023-03-05T07:07:44.563Z,89.73
2023-03-05T07:10:11.495Z,89.35
2023-03-05T07:12:38.720Z,88.88
2023-03-05T07:15:05.806Z,89.10
2023-03-05T07:17:32.452Z,89.39
2023-03-05T07:19:59.125Z,89.24
2023-03-05T07:22:25.781Z,88.81
2023-03-05T07:24:52.423Z,89.27
2023-03-05T07:27:19.045Z,88.97
2023-03-05T07:29:46.033Z,89.19
2023-03-05T07:32:12.718Z,89.25
2023-03-05T07:34:39.359Z,88.29
2023-03-05T07:37:05.983Z,88.89
2023-03-05T07:39:32.733Z,88.49
2023-03-05T07:41:59.486Z,88.78
2023-03-05T07:44:25.957Z,89.03
2023-03-05T07:46:52.488Z,88.23
2023-03-05T07:49:18.997Z,88.57
2023-03-05T07:51:45.449Z,89.12
2023-03-05T07:54:11.870Z,88.03
2023-03-05T07:56:38.333Z,88.67
2023-03-05T07:59:07.514Z,88.27
2023-03-05T08:01:35.022Z,87.94
2023-03-05T08:04:02.517Z,88.17
2023-03-05T08:06:29.162Z,88.36
2023-03-05T08:08:58.078Z,88.29
2023-03-05T08:11:24.792Z,88.63
2023-03-05T08:13:51.312Z,88.55
2023-03-05T08:16:20.872Z,88.03
2023-03-05T08:18:47.837Z,87.74
2023-03-05T08:21:22.962Z,88.45
2023-03-05T08:23:49.773Z,88.58
2023-03-05T08:26:19.790Z,89.33
2023-03-05T08:28:46.327Z,88.53
2023-03-05T08:31:13.924Z,88.47
2023-03-05T08:33:40.898Z,88.05
2023-03-05T08:36:08.661Z,87.33
2023-03-05T08:38:36.583Z,86.96
2023-03-05T08:41:03.624Z,86.81
2023-03-05T08:43:31.066Z,86.53
2023-03-05T08:45:59.338Z,86.90
2023-03-05T08:48:25.791Z,86.75
2023-03-05T08:50:53.142Z,86.34
2023-03-05T08:53:19.607Z,86.09
2023-03-05T08:55:55.020Z,86.56
2023-03-05T08:58:23.876Z,86.94
2023-03-05T09:00:50.927Z,86.76
2023-03-05T09:03:18.416Z,85.96
2023-03-05T09:05:45.297Z,85.40
2023-03-05T09:08:12.052Z,85.30
2023-03-05T09:10:38.594Z,84.70
2023-03-05T09:13:05.080Z,84.44
2023-03-05T09:15:32.001Z,85.06
2023-03-05T09:17:59.520Z,85.40
2023-03-05T09:20:26.062Z,85.40
2023-03-05T09:22:52.534Z,85.06
2023-03-05T09:25:19.995Z,84.35
2023-03-05T09:27:47.369Z,83.19
2023-03-05T09:30:14.401Z,83.89
2023-03-05T09:32:40.889Z,83.82
2023-03-05T09:35:07.920Z,82.24
2023-03-05T09:37:34.414Z,83.04
2023-03-05T09:40:01.005Z,83.05
2023-03-05T09:42:54.218Z,83.01
2023-03-05T09:45:28.793Z,82.90
2023-03-05T09:48:20.631Z,82.94
2023-03-05T09:50:52.359Z,82.24
2023-03-05T09:53:37.832Z,82.46
2023-03-05T09:56:11.606Z,81.44
2023-03-05T09:58:56.062Z,81.85
2023-03-05T10:01:36.020Z,82.16
2023-03-05T10:04:09.045Z,81.68
2023-03-05T10:06:45.284Z,81.74
2023-03-05T10:09:11.892Z,80.80
2023-03-05T10:12:00.942Z,80.75
2023-03-05T10:14:40.962Z,80.03
2023-03-05T10:17:22.609Z,79.08
2023-03-05T10:20:15.878Z,80.23
2023-03-05T10:23:04.133Z,79.05
2023-03-05T10:25:48.589Z,80.34
2023-03-05T10:28:24.809Z,79.94
2023-03-05T10:31:18.129Z,79.41
2023-03-05T10:34:12.068Z,80.24
2023-03-05T10:36:58.972Z,79.79
2023-03-05T10:39:54.798Z,80.52
2023-03-05T10:42:35.111Z,80.42
2023-03-05T10:45:15.311Z,79.26
2023-03-05T10:47:49.518Z,78.59
2023-03-05T10:50:20.338Z,77.20
2023-03-05T10:52:52.501Z,78.10
2023-03-05T10:55:21.971Z,79.07
2023-03-05T10:57:48.619Z,80.67
2023-03-05T11:00:25.646Z,81.52
2023-03-05T11:03:03.032Z,82.00
2023-03-05T11:05:39.430Z,84.66
2023-03-05T11:08:28.153Z,84.82
2023-03-05T11:11:16.733Z,86.57
2023-03-05T11:13:52.853Z,84.75
2023-03-05T11:16:24.251Z,83.92
2023-03-05T11:19:11.638Z,82.43
2023-03-05T11:21:38.367Z,76.04
2023-03-05T11:24:16.920Z,75.04
2023-03-05T11:26:49.899Z,74.67
2023-03-05T11:29:22.531Z,74.17
2023-03-05T11:31:49.695Z,76.06
2023-03-05T11:34:19.330Z,74.99
2023-03-05T11:36:53.063Z,75.41
2023-03-05T11:39:22.425Z,73.69
2023-03-05T11:41:51.993Z,72.01
2023-03-05T11:44:22.936Z,73.85
2023-03-05T11:47:13.597Z,71.32
2023-03-05T11:49:45.381Z,71.40
2023-03-05T11:52:28.136Z,64.02
2023-03-05T11:55:16.081Z,66.87
2023-03-05T11:58:06.709Z,65.33
2023-03-05T12:00:37.065Z,63.33
2023-03-05T12:03:13.135Z,64.45
2023-03-05T12:05:44.582Z,66.28
2023-03-05T12:08:25.767Z,64.14
2023-03-05T12:10:52.585Z,62.79
2023-03-05T12:13:38.848Z,63.47
2023-03-05T12:16:26.209Z,63.61
2023-03-05T12:19:23.171Z,63.55
2023-03-05T12:21:52.147Z,64.91
2023-03-05T12:24:35.287Z,63.68
2023-03-05T12:27:05.797Z,64.30
2023-03-05T12:29:50.377Z,64.49
2023-03-05T12:32:23.274Z,63.50
2023-03-05T12:34:58.059Z,62.63
2023-03-05T12:37:24.878Z,62.74
2023-03-05T12:40:23.959Z,63.45
2023-03-05T12:42:54.716Z,63.60
2023-03-05T12:45:21.326Z,64.75
2023-03-05T12:48:13.646Z,65.94
2023-03-05T12:50:40.343Z,65.67
2023-03-05T12:53:07.025Z,65.83
2023-03-05T12:55:36.030Z,66.78
2023-03-05T12:58:25.641Z,66.51
2023-03-05T13:00:57.991Z,66.36
2023-03-05T13:03:30.791Z,64.86
2023-03-05T13:06:06.509Z,65.84
2023-03-05T13:08:37.741Z,65.74
2023-03-05T13:11:09.304Z,66.03
2023-03-05T13:13:42.141Z,66.84
2023-03-05T13:16:28.930Z,66.67
2023-03-05T13:18:59.136Z,66.99
2023-03-05T13:21:28.978Z,67.08
2023-03-05T13:23:59.614Z,67.29
2023-03-05T13:26:36.828Z,68.17
2023-03-05T13:29:03.391Z,68.03
2023-03-05T13:31:30.511Z,69.00
2023-03-05T13:34:07.692Z,70.22
2023-03-05T13:36:34.561Z,70.83
2023-03-05T13:39:03.953Z,71.52
2023-03-05T13:41:30.601Z,71.87
2023-03-05T13:44:01.234Z,73.42
2023-03-05T13:46:31.381Z,74.39
2023-03-05T13:49:17.977Z,74.99
2023-03-05T13:51:47.718Z,74.84
2023-03-05T13:54:17.044Z,74.88
2023-03-05T13:57:06.005Z,75.87
2023-03-05T13:59:38.742Z,75.83
2023-03-05T14:02:17.175Z,75.48
2023-03-05T14:04:46.259Z,76.06
2023-03-05T14:07:31.805Z,76.21
2023-03-05T14:09:59.741Z,77.23
2023-03-05T14:12:37.040Z,77.95
2023-03-05T14:15:22.413Z,77.67
2023-03-05T14:17:49.482Z,77.82
2023-03-05T14:20:28.161Z,78.45
2023-03-05T14:22:58.094Z,78.76
2023-03-05T14:25:24.671Z,77.89
2023-03-05T14:27:51.433Z,79.17
2023-03-05T14:30:21.569Z,78.79
2023-03-05T14:32:50.732Z,78.55
2023-03-05T14:35:20.701Z,78.64
2023-03-05T14:37:49.114Z,79.08
2023-03-05T14:40:15.843Z,78.94
2023-03-05T14:42:53.619Z,78.90
2023-03-05T14:45:22.834Z,78.84
2023-03-05T14:47:50.741Z,78.62
2023-03-05T14:50:43.515Z,78.56
2023-03-05T14:53:17.034Z,78.11
2023-03-05T14:55:48.724Z,78.23
2023-03-05T14:58:20.151Z,78.47
2023-03-05T15:00:49.478Z,78.56
2023-03-05T15:03:19.617Z,78.57
2023-03-05T15:05:48.454Z,78.68
2023-03-05T15:08:20.292Z,79.05
2023-03-05T15:10:47.122Z,78.54
2023-03-05T15:13:15.340Z,78.36
2023-03-05T15:15:43.209Z,78.29
2023-03-05T15:18:12.998Z,79.28
2023-03-05T15:20:40.609Z,78.85
2023-03-05T15:23:07.619Z,78.75
2023-03-05T15:25:34.488Z,78.30
2023-03-05T15:28:01.648Z,78.17
2023-03-05T15:30:34.177Z,78.52
2023-03-05T15:33:03.285Z,78.33
2023-03-05T15:35:30.112Z,78.82
2023-03-05T15:37:58.052Z,78.82
2023-03-05T15:40:27.626Z,79.03
2023-03-05T15:42:58.835Z,79.25
2023-03-05T15:45:26.414Z,80.01
2023-03-05T15:47:53.687Z,79.60
2023-03-05T15:50:21.314Z,79.92
2023-03-05T15:52:49.056Z,79.92
2023-03-05T15:55:19.054Z,79.98
2023-03-05T15:57:48.593Z,80.53
2023-03-05T16:00:18.936Z,81.29
2023-03-05T16:02:45.595Z,80.90
2023-03-05T16:05:12.266Z,81.52
2023-03-05T16:07:42.200Z,81.36
2023-03-05T16:10:17.317Z,81.04
2023-03-05T16:12:46.783Z,81.72
2023-03-05T16:15:18.566Z,81.38
2023-03-05T16:17:48.688Z,81.55
2023-03-05T16:20:15.974Z,81.47
2023-03-05T16:22:42.624Z,81.61
2023-03-05T16:25:09.737Z,81.58
2023-03-05T16:27:36.503Z,81.75
2023-03-05T16:30:04.803Z,82.08
2023-03-05T16:32:31.654Z,82.67
2023-03-05T16:34:58.572Z,81.93
2023-03-05T16:37:25.847Z,82.40
2023-03-05T16:39:52.548Z,82.48
2023-03-05T16:42:19.327Z,82.56
2023-03-05T16:44:47.303Z,82.22
2023-03-05T16:47:14.055Z,82.06
2023-03-05T16:49:40.853Z,82.28
2023-03-05T16:52:19.864Z,82.47
2023-03-05T16:54:48.189Z,82.94
2023-03-05T16:57:15.334Z,82.83
2023-03-05T16:59:43.463Z,82.98
2023-03-05T17:02:12.624Z,82.77
2023-03-05T17:04:39.304Z,82.71
2023-03-05T17:07:06.048Z,82.51
2023-03-05T17:09:33.369Z,82.52
2023-03-05T17:12:00.064Z,82.41
2023-03-05T17:14:27.444Z,82.86
2023-03-05T17:16:54.139Z,82.96
2023-03-05T17:19:20.919Z,83.19
2023-03-05T17:21:50.634Z,82.99
2023-03-05T17:24:17.425Z,82.93
2023-03-05T17:26:44.193Z,82.66
2023-03-05T17:29:10.886Z,82.65
2023-03-05T17:31:37.706Z,82.74
2023-03-05T17:34:04.583Z,82.96
2023-03-05T17:36:32.108Z,82.96
2023-03-05T17:38:59.320Z,83.09
2023-03-05T17:41:26.175Z,83.08
2023-03-05T17:43:52.876Z,83.18
2023-03-05T17:46:19.493Z,83.16
2023-03-05T17:48:46.200Z,83.54
2023-03-05T17:51:13.912Z,83.39
2023-03-05T17:53:40.943Z,83.36
2023-03-05T17:56:13.155Z,83.60
2023-03-05T17:58:40.402Z,83.63
2023-03-05T18:01:07.955Z,83.55
2023-03-05T18:03:35.489Z,83.59
2023-03-05T18:06:02.413Z,83.82
2023-03-05T18:08:29.118Z,83.69
2023-03-05T18:10:55.787Z,83.58
2023-03-05T18:13:22.553Z,83.56
2023-03-05T18:15:49.213Z,83.74
2023-03-05T18:18:17.797Z,83.58
2023-03-05T18:20:45.510Z,83.77
2023-03-05T18:23:12.479Z,84.12
2023-03-05T18:25:39.188Z,83.94
2023-03-05T18:28:08.773Z,83.98
2023-03-05T18:30:36.723Z,84.05
2023-03-05T18:33:03.572Z,83.94
2023-03-05T18:35:31.049Z,83.92
2023-03-05T18:37:58.155Z,83.79
2023-03-05T18:40:27.253Z,83.82
2023-03-05T18:42:54.434Z,83.83
2023-03-05T18:45:22.626Z,83.85
2023-03-05T18:47:53.888Z,83.99
2023-03-05T18:50:22.376Z,84.52
2023-03-05T18:52:50.213Z,84.17
2023-03-05T18:55:19.866Z,84.23
2023-03-05T18:57:47.201Z,83.91
2023-03-05T19:00:15.930Z,84.00
2023-03-05T19:02:42.611Z,83.72
2023-03-05T19:05:10.140Z,84.11
2023-03-05T19:07:37.933Z,84.34
2023-03-05T19:10:09.807Z,84.50
2023-03-05T19:12:45.242Z,84.50
2023-03-05T19:15:13.119Z,84.43
2023-03-05T19:17:40.367Z,84.93
2023-03-05T19:20:08.394Z,84.83
2023-03-05T19:22:35.085Z,85.10
2023-03-05T19:25:02.157Z,84.62
2023-03-05T19:27:29.108Z,85.09
2023-03-05T19:29:55.861Z,84.78
2023-03-05T19:32:23.529Z,84.83
2023-03-05T19:34:50.732Z,84.92
2023-03-05T19:37:18.186Z,85.05
2023-03-05T19:39:45.017Z,85.37
2023-03-05T19:42:11.807Z,84.91
2023-03-05T19:44:38.947Z,85.08
2023-03-05T19:47:06.364Z,85.67
2023-03-05T19:49:33.388Z,85.46
2023-03-05T19:52:00.033Z,85.40
2023-03-05T19:54:27.227Z,85.79
2023-03-05T19:56:55.666Z,85.57
2023-03-05T19:59:23.032Z,85.94
2023-03-05T20:01:49.844Z,85.97
2023-03-05T20:04:22.084Z,86.14
2023-03-05T20:06:48.958Z,86.24
2023-03-05T20:09:16.311Z,86.62
2023-03-05T20:11:43.721Z,86.40
2023-03-05T20:14:13.095Z,86.81
2023-03-05T20:16:40.836Z,86.31
2023-03-05T20:19:10.687Z,86.85
2023-03-05T20:21:39.524Z,86.37
2023-03-05T20:24:10.220Z,86.72
2023-03-05T20:26:38.593Z,86.58
2023-03-05T20:29:05.384Z,86.46
2023-03-05T20:31:37.011Z,86.16
2023-03-05T20:34:05.856Z,86.72
2023-03-05T20:36:34.512Z,86.32
2023-03-05T20:39:03.214Z,86.53
2023-03-05T20:41:31.320Z,86.13
2023-03-05T20:43:58.124Z,86.79
2023-03-05T20:46:30.654Z,86.88
2023-03-05T20:49:01.708Z,87.50
2023-03-05T20:51:31.245Z,87.07
2023-03-05T20:54:03.154Z,87.33
2023-03-05T20:56:32.366Z,87.53
2023-03-05T20:59:01.079Z,87.78
2023-03-05T21:01:28.066Z,87.58
2023-03-05T21:03:56.932Z,87.92
2023-03-05T21:06:24.545Z,87.55
2023-03-05T21:08:51.450Z,87.76
2023-03-05T21:11:19.019Z,88.98
2023-03-05T21:13:46.504Z,89.08
2023-03-05T21:16:25.068Z,88.92
2023-03-05T21:18:53.047Z,88.91
2023-03-05T21:21:20.130Z,88.75
2023-03-05T21:23:47.450Z,88.98
2023-03-05T21:26:14.670Z,89.23
2023-03-05T21:28:42.145Z,89.85
2023-03-05T21:31:14.607Z,89.24
2023-03-05T21:33:41.955Z,89.08
2023-03-05T21:36:08.896Z,89.89
2023-03-05T21:38:35.704Z,88.93
2023-03-05T21:41:03.614Z,89.57
2023-03-05T21:43:31.250Z,89.08
2023-03-05T21:46:00.228Z,89.63
2023-03-05T21:48:30.571Z,89.78
2023-03-05T21:50:58.244Z,89.53
2023-03-05T21:53:26.007Z,89.65
2023-03-05T21:56:10.685Z,89.76
2023-03-05T21:58:37.446Z,89.07
2023-03-05T22:01:04.498Z,88.88
2023-03-05T22:03:31.264Z,89.16
2023-03-05T22:05:58.041Z,88.90
2023-03-05T22:08:24.888Z,88.59
2023-03-05T22:10:51.995Z,88.73
2023-03-05T22:13:20.020Z,88.97
2023-03-05T22:15:52.271Z,88.52
2023-03-05T22:18:24.624Z,88.50
2023-03-05T22:20:52.515Z,88.87
2023-03-05T22:23:22.216Z,89.00
2023-03-05T22:26:07.535Z,88.50
2023-03-05T22:28:35.072Z,88.79
2023-03-05T22:31:01.928Z,88.07
2023-03-05T22:33:28.990Z,88.51
2023-03-05T22:35:55.683Z,88.21
2023-03-05T22:38:22.591Z,87.95
2023-03-05T22:40:49.930Z,88.11
2023-03-05T22:43:18.042Z,88.52
2023-03-05T22:45:45.025Z,88.24
2023-03-05T22:48:11.789Z,88.28
2023-03-05T22:50:39.944Z,87.88
2023-03-05T22:53:07.229Z,87.74
2023-03-05T22:55:33.890Z,87.57
2023-03-05T22:58:00.526Z,87.74
2023-03-05T23:00:27.188Z,87.38
2023-03-05T23:02:54.000Z,87.35
2023-03-05T23:05:21.176Z,88.07
2023-03-05T23:07:47.986Z,87.76
2023-03-05T23:10:18.094Z,88.05
2023-03-05T23:12:49.846Z,88.01
2023-03-05T23:15:21.936Z,87.69
2023-03-05T23:17:48.593Z,88.22
2023-03-05T23:20:16.908Z,87.65
2023-03-05T23:22:44.929Z,87.56
2023-03-05T23:25:13.076Z,87.07
2023-03-05T23:27:40.469Z,87.33
2023-03-05T23:30:19.828Z,86.96
2023-03-05T23:32:54.642Z,87.68
2023-03-05T23:35:24.977Z,87.59
2023-03-05T23:37:53.376Z,87.21
2023-03-05T23:40:29.540Z,87.25
2023-03-05T23:42:56.589Z,87.29
2023-03-05T23:45:24.872Z,87.82
2023-03-05T23:47:52.898Z,87.65
2023-03-05T23:50:21.165Z,87.17
2023-03-05T23:52:48.542Z,87.71
2023-03-05T23:55:21.992Z,87.55
2023-03-05T23:57:49.359Z,87.78
